Time;durP1;ratioP1;P1;durP2;ratioP2;P2;SDS_P1;SDS_P2;PMS_P1;PMS_P2;Temp;Humidity;BMP_temperature;BMP_pressure;BME280_temperature;BME280_humidity;BME280_pressure;Samples;Min_cycle;Max_cycle;Signal;HPM_P1;HPM_P2
2022/03/15 00:01:10;;;;;;;25.80;24.00;;;;;;;-141.02;100.00;55844.97;5136876;27;20227;-69
2022/03/15 00:03:37;;;;;;;23.53;22.13;;;;;;;-141.02;100.00;55844.97;5136885;27;20625;-69
2022/03/15 00:06:05;;;;;;;25.43;23.67;;;;;;;-141.02;100.00;55844.97;5136715;27;20604;-69
2022/03/15 00:08:33;;;;;;;25.23;23.50;;;;;;;-141.02;100.00;55844.97;5136771;27;20283;-69
2022/03/15 00:11:05;;;;;;;27.47;25.03;;;;;;;-141.02;100.00;55844.97;5136405;27;20241;-69
2022/03/15 00:13:32;;;;;;;24.63;23.03;;;;;;;-141.02;100.00;55844.97;5136376;27;20276;-69
2022/03/15 00:16:02;;;;;;;26.27;24.47;;;;;;;-141.02;100.00;55844.97;5136552;27;20288;-69
2022/03/15 00:18:31;;;;;;;25.83;24.13;;;;;;;-141.02;100.00;55844.97;5136210;27;20193;-69
2022/03/15 00:20:58;;;;;;;28.40;26.40;;;;;;;-141.02;100.00;55844.97;5136145;27;20685;-69
2022/03/15 00:23:26;;;;;;;26.10;24.07;;;;;;;-141.02;100.00;55844.97;5136400;27;20203;-69
2022/03/15 00:25:53;;;;;;;24.73;23.20;;;;;;;-141.02;100.00;55844.97;5136373;27;20694;-69
2022/03/15 00:28:22;;;;;;;25.77;23.97;;;;;;;-141.02;100.00;55844.97;5136009;27;20730;-69
2022/03/15 00:30:49;;;;;;;24.53;23.03;;;;;;;-141.02;100.00;55844.97;5136327;27;20207;-69
2022/03/15 00:33:17;;;;;;;27.87;25.43;;;;;;;-141.02;100.00;55844.97;5135967;27;20682;-70
2022/03/15 00:35:44;;;;;;;23.83;22.23;;;;;;;-141.02;100.00;55844.97;5136254;27;20196;-69
2022/03/15 00:38:11;;;;;;;24.23;22.53;;;;;;;-141.02;100.00;55844.97;5135522;27;20264;-68
2022/03/15 00:40:39;;;;;;;24.40;22.70;;;;;;;-141.02;100.00;55844.97;5134938;28;20216;-69
2022/03/15 00:43:06;;;;;;;24.13;22.33;;;;;;;-141.02;100.00;55844.97;5134578;28;20207;-68
2022/03/15 00:45:34;;;;;;;23.17;21.50;;;;;;;-141.02;100.00;55844.97;5134383;27;20252;-69
2022/03/15 00:48:01;;;;;;;23.83;22.13;;;;;;;-141.02;100.00;55844.97;5134504;28;20193;-69
2022/03/15 00:50:30;;;;;;;23.70;22.00;;;;;;;-141.02;100.00;55844.97;5134559;27;20257;-68
2022/03/15 00:52:59;;;;;;;25.47;23.60;;;;;;;-141.02;100.00;55844.97;5134723;27;20249;-68
2022/03/15 00:55:27;;;;;;;24.00;22.23;;;;;;;-141.02;100.00;55844.97;5134406;28;20221;-68
2022/03/15 00:57:54;;;;;;;25.00;23.20;;;;;;;-141.02;100.00;55844.97;5134731;27;20340;-68
2022/03/15 01:00:22;;;;;;;23.70;22.00;;;;;;;-141.02;100.00;55844.97;5134357;27;20620;-73
2022/03/15 01:02:49;;;;;;;22.53;21.03;;;;;;;-141.02;100.00;55844.97;5134314;27;20199;-68
2022/03/15 01:05:16;;;;;;;22.57;20.97;;;;;;;-141.02;100.00;55844.97;5134206;28;20261;-69
2022/03/15 01:07:45;;;;;;;23.27;21.60;;;;;;;-141.02;100.00;55844.97;5134108;28;20282;-69
2022/03/15 01:10:12;;;;;;;22.30;20.77;;;;;;;-141.02;100.00;55844.97;5134111;28;20288;-69
2022/03/15 01:12:39;;;;;;;23.07;21.57;;;;;;;-141.02;100.00;55844.97;5134453;28;20231;-69
2022/03/15 01:15:08;;;;;;;24.27;22.57;;;;;;;-141.02;100.00;55844.97;5134712;27;20253;-70
2022/03/15 01:17:35;;;;;;;25.27;23.27;;;;;;;-141.02;100.00;55844.97;5134070;28;20193;-69
2022/03/15 01:20:03;;;;;;;25.47;23.67;;;;;;;-141.02;100.00;55844.97;5134343;27;20189;-69
2022/03/15 01:22:30;;;;;;;24.73;23.03;;;;;;;-141.02;100.00;55844.97;5134246;27;20234;-69
2022/03/15 01:24:58;;;;;;;26.70;24.90;;;;;;;-141.02;100.00;55844.97;5133953;28;20237;-70
2022/03/15 01:27:25;;;;;;;24.80;23.00;;;;;;;-141.02;100.00;55844.97;5133728;28;20664;-70
2022/03/15 01:29:52;;;;;;;24.77;23.17;;;;;;;-141.02;100.00;55844.97;5133826;28;20189;-69
2022/03/15 01:32:20;;;;;;;23.83;22.33;;;;;;;-141.02;100.00;55844.97;5133806;28;20235;-69
2022/03/15 01:34:47;;;;;;;24.70;23.00;;;;;;;-141.02;100.00;55844.97;5133699;28;20197;-69
2022/03/15 01:37:14;;;;;;;26.27;24.47;;;;;;;-141.02;100.00;55844.97;5134090;28;20193;-69
2022/03/15 01:39:41;;;;;;;25.83;24.00;;;;;;;-141.02;100.00;55844.97;5088237;27;1301551;-69
2022/03/15 01:42:10;;;;;;;24.73;23.13;;;;;;;-141.02;100.00;55844.97;5135027;27;20234;-70
2022/03/15 01:44:37;;;;;;;24.27;22.67;;;;;;;-141.02;100.00;55844.97;5134621;27;20201;-70
2022/03/15 01:47:05;;;;;;;24.33;22.57;;;;;;;-141.02;100.00;55844.97;5134784;27;20281;-69
2022/03/15 01:49:32;;;;;;;24.90;23.30;;;;;;;-141.02;100.00;55844.97;5134860;27;20228;-68
2022/03/15 01:51:59;;;;;;;23.90;22.23;;;;;;;-141.02;100.00;55844.97;5134752;27;20188;-69
2022/03/15 01:54:27;;;;;;;25.93;24.13;;;;;;;-141.02;100.00;55844.97;5135285;27;20279;-69
2022/03/15 01:56:53;;;;;;;25.83;23.87;;;;;;;-141.02;100.00;55844.97;5133522;27;20235;-68
2022/03/15 01:59:22;;;;;;;27.20;25.03;;;;;;;-141.02;100.00;55844.97;5134337;27;20283;-69
2022/03/15 02:01:49;;;;;;;27.83;25.50;;;;;;;-141.02;100.00;55844.97;5134218;27;20291;-69
2022/03/15 02:04:16;;;;;;;25.03;23.37;;;;;;;-141.02;100.00;55844.97;5134201;27;20666;-69
2022/03/15 02:06:44;;;;;;;24.37;22.87;;;;;;;-141.02;100.00;55844.97;5134110;27;20224;-69
2022/03/15 02:09:13;;;;;;;25.73;24.10;;;;;;;-141.02;100.00;55844.97;5134418;27;20739;-68
2022/03/15 02:11:42;;;;;;;23.60;21.80;;;;;;;-141.02;100.00;55844.97;5134410;27;20232;-68
2022/03/15 02:14:10;;;;;;;23.07;21.57;;;;;;;-141.02;100.00;55844.97;5134063;27;20283;-69
2022/03/15 02:16:38;;;;;;;25.70;23.90;;;;;;;-141.02;100.00;55844.97;5134319;27;20659;-69
2022/03/15 02:19:05;;;;;;;26.43;24.73;;;;;;;-141.02;100.00;55844.97;5133920;27;20668;-69
2022/03/15 02:21:36;;;;;;;27.27;25.57;;;;;;;-141.02;100.00;55844.97;5133849;27;20192;-68
2022/03/15 02:24:04;;;;;;;26.03;24.43;;;;;;;-141.02;100.00;55844.97;5133877;27;20224;-68
2022/03/15 02:26:31;;;;;;;21.63;20.13;;;;;;;-141.02;100.00;55844.97;5134029;27;20224;-69
2022/03/15 02:28:59;;;;;;;23.50;21.80;;;;;;;-141.02;100.00;55844.97;5134079;27;20196;-69
2022/03/15 02:31:26;;;;;;;23.23;21.63;;;;;;;-141.02;100.00;55844.97;5133953;27;20276;-69
2022/03/15 02:33:53;;;;;;;23.10;21.43;;;;;;;-141.02;100.00;55844.97;5133657;27;20228;-69
2022/03/15 02:36:20;;;;;;;24.27;22.67;;;;;;;-141.02;100.00;55844.97;5133561;27;20197;-69
2022/03/15 02:38:49;;;;;;;23.97;22.27;;;;;;;-141.02;100.00;55844.97;5133742;27;20285;-69
2022/03/15 02:41:16;;;;;;;25.00;23.17;;;;;;;-141.02;100.00;55844.97;5133540;27;20192;-69
2022/03/15 02:43:45;;;;;;;24.07;22.30;;;;;;;-141.02;100.00;55844.97;5133488;27;20659;-73
2022/03/15 02:46:12;;;;;;;26.27;24.77;;;;;;;-141.02;100.00;55844.97;5133373;27;20196;-69
2022/03/15 02:48:39;;;;;;;26.53;24.57;;;;;;;-141.02;100.00;55844.97;5133687;27;20196;-68
2022/03/15 02:51:08;;;;;;;23.90;22.50;;;;;;;-141.02;100.00;55844.97;5133703;27;20193;-68
2022/03/15 02:53:36;;;;;;;27.77;25.97;;;;;;;-141.02;100.00;55844.97;5133525;27;20291;-69
2022/03/15 02:56:06;;;;;;;29.03;27.13;;;;;;;-141.02;100.00;55844.97;5133212;27;20198;-69
2022/03/15 02:58:33;;;;;;;23.03;21.43;;;;;;;-141.02;100.00;55844.97;5133296;27;20249;-68
2022/03/15 03:01:00;;;;;;;23.17;21.23;;;;;;;-141.02;100.00;55844.97;5133435;27;20201;-69
2022/03/15 03:03:28;;;;;;;22.87;21.47;;;;;;;-141.02;100.00;55844.97;5133499;27;20276;-69
2022/03/15 03:05:55;;;;;;;23.60;21.63;;;;;;;-141.02;100.00;55844.97;5133104;27;20676;-69
2022/03/15 03:08:27;;;;;;;23.67;21.87;;;;;;;-141.02;100.00;55844.97;5133165;27;20276;-68
2022/03/15 03:10:54;;;;;;;24.80;23.10;;;;;;;-141.02;100.00;55844.97;5133396;27;20267;-68
2022/03/15 03:13:25;;;;;;;22.20;20.47;;;;;;;-141.02;100.00;55844.97;5133292;27;20267;-69
2022/03/15 03:15:54;;;;;;;24.23;22.87;;;;;;;-141.02;100.00;55844.97;5133032;27;20280;-69
2022/03/15 03:18:21;;;;;;;23.90;22.20;;;;;;;-141.02;100.00;55844.97;5132932;27;20287;-69
2022/03/15 03:20:48;;;;;;;24.93;22.30;;;;;;;-141.02;100.00;55844.97;5133238;28;20193;-69
2022/03/15 03:23:17;;;;;;;25.60;24.20;;;;;;;-141.02;100.00;55844.97;5132927;28;20228;-69
2022/03/15 03:25:44;;;;;;;21.67;20.57;;;;;;;-141.02;100.00;55844.97;5133707;28;20204;-68
2022/03/15 03:28:13;;;;;;;25.70;21.53;;;;;;;-141.02;100.00;55844.97;5133138;28;20329;-68
2022/03/15 03:30:46;;;;;;;25.00;23.27;;;;;;;-141.02;100.00;55844.97;5132803;28;20228;-68
2022/03/15 03:33:14;;;;;;;22.50;21.40;;;;;;;-141.02;100.00;55844.97;5133238;27;20187;-68
2022/03/15 03:35:41;;;;;;;24.90;23.17;;;;;;;-141.02;100.00;55844.97;5133072;28;20196;-68
2022/03/15 03:38:08;;;;;;;25.07;23.37;;;;;;;-141.02;100.00;55844.97;5132909;27;20289;-68
2022/03/15 03:40:35;;;;;;;23.17;21.77;;;;;;;-141.02;100.00;55844.97;5133077;27;20192;-68
2022/03/15 03:43:02;;;;;;;23.80;22.30;;;;;;;-141.02;100.00;55844.97;5132755;28;20283;-68
2022/03/15 03:45:29;;;;;;;26.47;25.07;;;;;;;-141.02;100.00;55844.97;5133076;28;20604;-69
2022/03/15 03:47:58;;;;;;;25.50;24.20;;;;;;;-141.02;100.00;55844.97;5132896;28;20285;-68
2022/03/15 03:50:25;;;;;;;23.10;21.70;;;;;;;-141.02;100.00;55844.97;5133023;28;20227;-68
2022/03/15 03:52:52;;;;;;;23.30;22.00;;;;;;;-141.02;100.00;55844.97;5132623;28;20196;-69
2022/03/15 03:55:19;;;;;;;25.30;23.43;;;;;;;-141.02;100.00;55844.97;5132932;28;20237;-69
2022/03/15 03:57:46;;;;;;;26.57;24.87;;;;;;;-141.02;100.00;55844.97;5132884;28;20196;-69
2022/03/15 04:00:14;;;;;;;21.83;20.57;;;;;;;-141.02;100.00;55844.97;5132895;28;20671;-69
2022/03/15 04:02:42;;;;;;;21.80;20.50;;;;;;;-141.02;100.00;55844.97;5132584;27;20192;-69
2022/03/15 04:05:12;;;;;;;23.90;22.60;;;;;;;-141.02;100.00;55844.97;5132811;28;20225;-69
2022/03/15 04:07:40;;;;;;;22.70;21.30;;;;;;;-141.02;100.00;55844.97;5132768;27;20219;-69
2022/03/15 04:10:08;;;;;;;23.40;21.20;;;;;;;-141.02;100.00;55844.97;5132472;28;20232;-69
2022/03/15 04:12:36;;;;;;;20.63;18.73;;;;;;;-141.02;100.00;55844.97;5132831;27;20197;-69
2022/03/15 04:15:03;;;;;;;24.67;23.10;;;;;;;-141.02;100.00;55844.97;5132454;28;20634;-68
2022/03/15 04:17:30;;;;;;;22.70;21.30;;;;;;;-141.02;100.00;55844.97;5132374;28;20232;-69
2022/03/15 04:19:57;;;;;;;25.53;23.30;;;;;;;-141.02;100.00;55844.97;5133560;27;20265;-69
2022/03/15 04:22:26;;;;;;;22.03;20.63;;;;;;;-141.02;100.00;55844.97;5136501;27;20196;-69
2022/03/15 04:24:53;;;;;;;22.87;21.47;;;;;;;-141.02;100.00;55844.97;5136450;27;20235;-69
2022/03/15 04:27:20;;;;;;;25.87;24.00;;;;;;;-141.02;100.00;55844.97;5136308;27;20278;-69
2022/03/15 04:29:47;;;;;;;22.60;21.30;;;;;;;-141.02;100.00;55844.97;5136101;27;20750;-68
2022/03/15 04:32:14;;;;;;;24.00;22.23;;;;;;;-141.02;100.00;55844.97;5136308;27;20193;-68
2022/03/15 04:34:41;;;;;;;23.70;22.17;;;;;;;-141.02;100.00;55844.97;5135958;27;20283;-69
2022/03/15 04:37:08;;;;;;;21.70;20.50;;;;;;;-141.02;100.00;55844.97;5135990;27;20721;-69
2022/03/15 04:39:37;;;;;;;21.83;20.27;;;;;;;-141.02;100.00;55844.97;5135795;27;20263;-68
2022/03/15 04:42:06;;;;;;;22.80;21.20;;;;;;;-141.02;100.00;55844.97;5135879;27;20193;-69
2022/03/15 04:44:33;;;;;;;21.93;20.40;;;;;;;-141.02;100.00;55844.97;5135788;27;20196;-68
2022/03/15 04:47:00;;;;;;;20.83;19.37;;;;;;;-141.02;100.00;55844.97;5136007;27;20272;-74
2022/03/15 04:49:27;;;;;;;20.20;18.90;;;;;;;-141.02;100.00;55844.97;5135770;27;20188;-69
2022/03/15 04:51:54;;;;;;;28.47;22.53;;;;;;;-141.02;100.00;55844.97;5135984;27;20193;-69
2022/03/15 04:54:21;;;;;;;21.53;20.13;;;;;;;-141.02;100.00;55844.97;5135985;27;20275;-69
2022/03/15 04:56:49;;;;;;;21.93;20.53;;;;;;;-141.02;100.00;55844.97;5135870;27;20227;-68
2022/03/15 04:59:16;;;;;;;20.00;18.80;;;;;;;-141.02;100.00;55844.97;5135870;27;20231;-69
2022/03/15 05:01:43;;;;;;;19.80;18.70;;;;;;;-141.02;100.00;55844.97;5135779;27;20204;-75
2022/03/15 05:04:10;;;;;;;21.87;20.37;;;;;;;-141.02;100.00;55844.97;5135412;27;20292;-70
2022/03/15 05:06:38;;;;;;;20.73;19.37;;;;;;;-141.02;100.00;55844.97;5135682;27;20654;-69
2022/03/15 05:09:05;;;;;;;21.37;20.07;;;;;;;-141.02;100.00;55844.97;5135229;27;20220;-72
2022/03/15 05:11:32;;;;;;;21.33;20.03;;;;;;;-141.02;100.00;55844.97;5135654;27;20193;-75
2022/03/15 05:14:01;;;;;;;20.20;19.00;;;;;;;-141.02;100.00;55844.97;5135273;27;20690;-69
2022/03/15 05:16:28;;;;;;;24.03;19.90;;;;;;;-141.02;100.00;55844.97;5135487;27;20250;-69
2022/03/15 05:18:56;;;;;;;20.97;19.77;;;;;;;-141.02;100.00;55844.97;5135492;27;20196;-69
2022/03/15 05:21:25;;;;;;;22.90;21.40;;;;;;;-141.02;100.00;55844.97;5136173;27;20234;-72
2022/03/15 05:23:53;;;;;;;22.03;20.73;;;;;;;-141.02;100.00;55844.97;5135089;27;20201;-69
2022/03/15 05:26:21;;;;;;;19.87;18.77;;;;;;;-141.02;100.00;55844.97;5135257;27;20192;-69
2022/03/15 05:28:50;;;;;;;20.60;19.40;;;;;;;-141.02;100.00;55844.97;5135233;27;20228;-68
2022/03/15 05:31:20;;;;;;;20.30;19.20;;;;;;;-141.02;100.00;55844.97;5134197;27;20196;-68
2022/03/15 05:33:47;;;;;;;20.43;19.33;;;;;;;-141.02;100.00;55844.97;5134736;27;20207;-68
2022/03/15 05:36:15;;;;;;;20.70;19.60;;;;;;;-141.02;100.00;55844.97;5134780;27;20284;-70
2022/03/15 05:38:42;;;;;;;22.47;21.13;;;;;;;-141.02;100.00;55844.97;5134470;27;20220;-69
2022/03/15 05:41:09;;;;;;;21.73;20.53;;;;;;;-141.02;100.00;55844.97;5134961;27;20268;-69
2022/03/15 05:43:36;;;;;;;25.97;22.53;;;;;;;-141.02;100.00;55844.97;5134654;27;20241;-69
2022/03/15 05:46:04;;;;;;;21.33;20.23;;;;;;;-141.02;100.00;55844.97;5134621;27;20228;-69
2022/03/15 05:48:34;;;;;;;21.03;19.87;;;;;;;-141.02;100.00;55844.97;5134447;27;20228;-69
2022/03/15 05:51:01;;;;;;;24.00;22.53;;;;;;;-141.02;100.00;55844.97;5134485;27;20201;-68
2022/03/15 05:53:28;;;;;;;23.37;21.13;;;;;;;-141.02;100.00;55844.97;5134502;27;20241;-69
2022/03/15 05:55:55;;;;;;;22.97;21.57;;;;;;;-141.02;100.00;55844.97;5134597;27;20613;-68
2022/03/15 05:58:22;;;;;;;21.50;20.30;;;;;;;-141.02;100.00;55844.97;5134293;27;20192;-69
2022/03/15 06:00:51;;;;;;;21.97;20.57;;;;;;;-141.02;100.00;55844.97;5134287;27;20690;-69
2022/03/15 06:03:18;;;;;;;21.63;20.43;;;;;;;-141.02;100.00;55844.97;5134497;27;20206;-68
2022/03/15 06:05:46;;;;;;;21.37;20.17;;;;;;;-141.02;100.00;55844.97;5134472;27;20196;-69
2022/03/15 06:08:13;;;;;;;21.30;20.10;;;;;;;-141.02;100.00;55844.97;5134044;27;20216;-69
2022/03/15 06:10:42;;;;;;;22.60;21.27;;;;;;;-141.02;100.00;55844.97;5134400;27;20220;-69
2022/03/15 06:13:09;;;;;;;21.63;20.43;;;;;;;-141.02;100.00;55844.97;5134342;27;20192;-68
2022/03/15 06:15:36;;;;;;;23.80;22.40;;;;;;;-141.02;100.00;55844.97;5134303;27;20192;-71
2022/03/15 06:18:03;;;;;;;23.17;21.87;;;;;;;-141.02;100.00;55844.97;5133932;27;20629;-68
2022/03/15 06:20:30;;;;;;;20.87;19.67;;;;;;;-141.02;100.00;55844.97;5133923;27;20192;-74
2022/03/15 06:23:00;;;;;;;19.93;18.73;;;;;;;-141.02;100.00;55844.97;5134217;27;20196;-69
2022/03/15 06:25:28;;;;;;;19.97;18.57;;;;;;;-141.02;100.00;55844.97;5134334;27;20245;-70
2022/03/15 06:27:55;;;;;;;24.63;22.23;;;;;;;-141.02;100.00;55844.97;5133676;27;20689;-69
2022/03/15 06:30:23;;;;;;;19.37;18.20;;;;;;;-141.02;100.00;55844.97;5134018;27;20228;-69
2022/03/15 06:32:49;;;;;;;21.03;19.63;;;;;;;-141.02;100.00;55844.97;5133977;27;20220;-71
2022/03/15 06:35:16;;;;;;;23.40;21.73;;;;;;;-141.02;100.00;55844.97;5133664;27;20228;-69
2022/03/15 06:37:45;;;;;;;21.07;19.70;;;;;;;-141.02;100.00;55844.97;5133622;27;20188;-74
2022/03/15 06:40:17;;;;;;;22.47;20.90;;;;;;;-141.02;100.00;55844.97;5133962;27;20275;-69
2022/03/15 06:42:44;;;;;;;20.67;19.37;;;;;;;-141.02;100.00;55844.97;5133203;27;20180;-74
2022/03/15 06:45:11;;;;;;;20.03;18.73;;;;;;;-141.02;100.00;55844.97;5133499;27;20238;-68
2022/03/15 06:47:39;;;;;;;20.67;19.37;;;;;;;-141.02;100.00;55844.97;5133643;27;20295;-68
2022/03/15 06:50:09;;;;;;;23.33;21.83;;;;;;;-141.02;100.00;55844.97;5133399;27;20232;-75
2022/03/15 06:52:36;;;;;;;21.10;19.80;;;;;;;-141.02;100.00;55844.97;5133701;27;20200;-68
2022/03/15 06:55:04;;;;;;;20.20;18.90;;;;;;;-141.02;100.00;55844.97;5133288;27;20741;-69
2022/03/15 06:57:33;;;;;;;20.23;18.93;;;;;;;-141.02;100.00;55844.97;5133357;27;20193;-69
2022/03/15 07:00:00;;;;;;;21.20;19.60;;;;;;;-141.02;100.00;55844.97;5133525;27;20253;-68
2022/03/15 07:02:27;;;;;;;21.40;20.00;;;;;;;-141.02;100.00;55844.97;5133572;27;20193;-69
2022/03/15 07:04:54;;;;;;;22.43;20.73;;;;;;;-141.02;100.00;55844.97;5133462;27;20577;-69
2022/03/15 07:07:22;;;;;;;24.37;22.57;;;;;;;-141.02;100.00;55844.97;5133488;27;20228;-73
2022/03/15 07:09:49;;;;;;;24.17;22.67;;;;;;;-141.02;100.00;55844.97;5132985;27;20280;-69
2022/03/15 07:12:16;;;;;;;23.10;21.40;;;;;;;-141.02;100.00;55844.97;5133027;27;20249;-68
2022/03/15 07:14:45;;;;;;;24.97;22.40;;;;;;;-141.02;100.00;55844.97;5133031;27;20674;-70
2022/03/15 07:17:12;;;;;;;24.30;22.37;;;;;;;-141.02;100.00;55844.97;5133260;27;20200;-70
2022/03/15 07:19:39;;;;;;;22.97;21.17;;;;;;;-141.02;100.00;55844.97;5133037;27;20197;-69
2022/03/15 07:22:06;;;;;;;23.93;22.03;;;;;;;-141.02;100.00;55844.97;5133311;27;20607;-69
2022/03/15 07:24:34;;;;;;;25.93;23.70;;;;;;;-141.02;100.00;55844.97;5133226;27;20597;-69
2022/03/15 07:27:01;;;;;;;22.37;20.93;;;;;;;-141.02;100.00;55844.97;5133265;27;20674;-69
2022/03/15 07:29:28;;;;;;;24.73;22.60;;;;;;;-141.02;100.00;55844.97;5132790;27;20272;-70
2022/03/15 07:31:56;;;;;;;24.93;23.13;;;;;;;-141.02;100.00;55844.97;5132844;28;20239;-68
2022/03/15 07:34:23;;;;;;;25.43;23.03;;;;;;;-141.02;100.00;55844.97;5132840;28;20283;-69
2022/03/15 07:36:50;;;;;;;24.77;22.17;;;;;;;-141.02;100.00;55844.97;5133197;27;20218;-69
2022/03/15 07:39:18;;;;;;;23.73;21.33;;;;;;;-141.02;100.00;55844.97;5132616;27;20228;-73
2022/03/15 07:41:46;;;;;;;20.87;19.57;;;;;;;-141.02;100.00;55844.97;5132757;28;20198;-69
2022/03/15 07:44:13;;;;;;;22.43;20.60;;;;;;;-141.02;100.00;55844.97;5133080;28;20257;-69
2022/03/15 07:46:48;;;;;;;22.37;20.87;;;;;;;-141.02;100.00;55844.97;5133056;27;20204;-69
2022/03/15 07:49:17;;;;;;;23.10;21.07;;;;;;;-141.02;100.00;55844.97;5133569;28;20227;-70
2022/03/15 07:51:44;;;;;;;26.10;23.87;;;;;;;-141.02;100.00;55844.97;5132974;28;20275;-70
2022/03/15 07:54:11;;;;;;;21.60;20.23;;;;;;;-141.02;100.00;55844.97;5133046;27;20555;-70
2022/03/15 07:56:38;;;;;;;23.27;21.70;;;;;;;-141.02;100.00;55844.97;5136349;27;20614;-71
2022/03/15 07:59:05;;;;;;;25.27;22.53;;;;;;;-141.02;100.00;55844.97;5136635;27;20196;-70
2022/03/15 08:01:32;;;;;;;20.77;19.47;;;;;;;-141.02;100.00;55844.97;5136881;27;20192;-70
2022/03/15 08:03:59;;;;;;;23.57;21.83;;;;;;;-141.02;100.00;55844.97;5137231;27;20196;-71
2022/03/15 08:06:29;;;;;;;23.57;22.07;;;;;;;-141.02;100.00;55844.97;5137005;27;20241;-71
2022/03/15 08:08:57;;;;;;;23.53;21.87;;;;;;;-141.02;100.00;55844.97;5136477;27;20212;-71
2022/03/15 08:11:24;;;;;;;23.23;21.73;;;;;;;-141.02;100.00;55844.97;5136781;27;20200;-71
2022/03/15 08:13:53;;;;;;;23.00;21.40;;;;;;;-141.02;100.00;55844.97;5136708;27;20196;-71
2022/03/15 08:16:21;;;;;;;31.57;29.43;;;;;;;-141.02;100.00;55844.97;5136642;27;20277;-71
2022/03/15 08:18:48;;;;;;;20.40;19.10;;;;;;;-141.02;100.00;55844.97;5136359;27;20238;-71
2022/03/15 08:21:15;;;;;;;21.70;20.40;;;;;;;-141.02;100.00;55844.97;5136276;27;20653;-71
2022/03/15 08:23:44;;;;;;;24.50;22.87;;;;;;;-141.02;100.00;55844.97;5136609;27;20195;-71
2022/03/15 08:26:11;;;;;;;22.53;21.07;;;;;;;-141.02;100.00;55844.97;5136236;27;20218;-72
2022/03/15 08:28:38;;;;;;;22.87;21.47;;;;;;;-141.02;100.00;55844.97;5136366;27;20228;-72
2022/03/15 08:31:05;;;;;;;23.47;21.97;;;;;;;-141.02;100.00;55844.97;5136433;27;20200;-72
2022/03/15 08:33:32;;;;;;;22.77;21.37;;;;;;;-141.02;100.00;55844.97;5135999;27;20253;-73
2022/03/15 08:35:59;;;;;;;22.40;21.10;;;;;;;-141.02;100.00;55844.97;5136035;27;20231;-74
2022/03/15 08:38:28;;;;;;;23.10;21.60;;;;;;;-141.02;100.00;55844.97;5135744;27;20788;-73
2022/03/15 08:40:58;;;;;;;20.50;19.30;;;;;;;-141.02;100.00;55844.97;5136244;27;20213;-74
2022/03/15 08:43:25;;;;;;;23.90;22.33;;;;;;;-141.02;100.00;55844.97;5135814;27;20218;-74
2022/03/15 08:45:53;;;;;;;21.90;20.60;;;;;;;-141.02;100.00;55844.97;5136090;27;20189;-74
2022/03/15 08:48:21;;;;;;;23.23;21.77;;;;;;;-141.02;100.00;55844.97;5135675;27;20192;-74
2022/03/15 08:50:48;;;;;;;26.50;24.50;;;;;;;-141.02;100.00;55844.97;5135967;27;20196;-75
2022/03/15 08:53:15;;;;;;;23.53;22.03;;;;;;;-141.02;100.00;55844.97;5135704;27;20201;-74
2022/03/15 08:55:42;;;;;;;22.10;20.80;;;;;;;-141.02;100.00;55844.97;5135948;27;20250;-76
2022/03/15 08:58:11;;;;;;;22.70;21.30;;;;;;;-141.02;100.00;55844.97;5135713;27;20259;-75
2022/03/15 09:00:38;;;;;;;21.87;20.57;;;;;;;-141.02;100.00;55844.97;5135855;27;20192;-75
2022/03/15 09:03:06;;;;;;;23.40;22.00;;;;;;;-141.02;100.00;55844.97;5135477;27;20192;-75
2022/03/15 09:05:33;;;;;;;25.57;23.50;;;;;;;-141.02;100.00;55844.97;5135417;27;20577;-74
2022/03/15 09:08:00;;;;;;;24.73;23.13;;;;;;;-141.02;100.00;55844.97;5135324;27;20188;-75
2022/03/15 09:10:27;;;;;;;22.60;21.30;;;;;;;-141.02;100.00;55844.97;5135535;27;20255;-74
2022/03/15 09:12:54;;;;;;;22.90;21.50;;;;;;;-141.02;100.00;55844.97;5135609;27;20192;-74
2022/03/15 09:15:25;;;;;;;23.03;21.63;;;;;;;-141.02;100.00;55844.97;5135462;27;20253;-74
2022/03/15 09:17:52;;;;;;;23.43;22.03;;;;;;;-141.02;100.00;55844.97;5135232;27;20276;-73
2022/03/15 09:20:20;;;;;;;27.20;24.77;;;;;;;-141.02;100.00;55844.97;5135442;27;20334;-73
2022/03/15 09:22:47;;;;;;;23.13;21.73;;;;;;;-141.02;100.00;55844.97;5135397;27;20269;-74
2022/03/15 09:25:14;;;;;;;22.17;20.87;;;;;;;-141.02;100.00;55844.97;5135370;27;20227;-73
2022/03/15 09:27:41;;;;;;;22.97;21.57;;;;;;;-141.02;100.00;55844.97;5135275;27;20275;-74
2022/03/15 09:30:08;;;;;;;22.37;20.87;;;;;;;-141.02;100.00;55844.97;5134888;27;20702;-74
2022/03/15 09:32:37;;;;;;;24.50;22.87;;;;;;;-141.02;100.00;55844.97;5134836;27;20757;-75
2022/03/15 09:35:04;;;;;;;22.30;20.97;;;;;;;-141.02;100.00;55844.97;5134839;27;20232;-73
2022/03/15 09:37:32;;;;;;;24.07;22.10;;;;;;;-141.02;100.00;55844.97;5134930;27;20196;-75
2022/03/15 09:39:59;;;;;;;22.80;21.40;;;;;;;-141.02;100.00;55844.97;5134708;27;20683;-74
2022/03/15 09:42:29;;;;;;;24.50;22.70;;;;;;;-141.02;100.00;55844.97;5134654;27;20193;-74
2022/03/15 09:44:58;;;;;;;23.30;21.90;;;;;;;-141.02;100.00;55844.97;5134973;27;20189;-74
2022/03/15 09:47:26;;;;;;;23.90;22.13;;;;;;;-141.02;100.00;55844.97;5134602;27;20253;-74
2022/03/15 09:49:56;;;;;;;24.80;23.00;;;;;;;-141.02;100.00;55844.97;5134437;27;20922;-74
2022/03/15 09:52:24;;;;;;;23.07;21.53;;;;;;;-141.02;100.00;55844.97;5134466;27;20192;-74
2022/03/15 09:54:52;;;;;;;22.37;20.93;;;;;;;-141.02;100.00;55844.97;5134413;27;20723;-74
2022/03/15 09:57:21;;;;;;;25.93;23.50;;;;;;;-141.02;100.00;55844.97;5134374;27;20232;-74
2022/03/15 09:59:50;;;;;;;21.33;20.03;;;;;;;-141.02;100.00;55844.97;5134526;27;20192;-74
2022/03/15 10:02:18;;;;;;;21.70;20.40;;;;;;;-141.02;100.00;55844.97;5134592;27;20200;-74
2022/03/15 10:04:45;;;;;;;21.17;19.97;;;;;;;-141.02;100.00;55844.97;5134247;27;20200;-74
2022/03/15 10:07:14;;;;;;;22.60;21.20;;;;;;;-141.02;100.00;55844.97;5134199;27;20552;-74
2022/03/15 10:09:41;;;;;;;21.33;20.13;;;;;;;-141.02;100.00;55844.97;5134119;27;20739;-74
2022/03/15 10:12:09;;;;;;;23.67;22.07;;;;;;;-141.02;100.00;55844.97;5134104;27;20677;-74
2022/03/15 10:14:44;;;;;;;22.80;21.30;;;;;;;-141.02;100.00;55844.97;5134043;27;20207;-74
2022/03/15 10:17:14;;;;;;;23.07;21.43;;;;;;;-141.02;100.00;55844.97;5133666;27;20574;-74
2022/03/15 10:19:51;;;;;;;25.43;23.53;;;;;;;-141.02;100.00;55844.97;5134131;27;20271;-74
2022/03/15 10:22:23;;;;;;;23.20;21.63;;;;;;;-141.02;100.00;55844.97;5134272;27;20552;-74
2022/03/15 10:24:51;;;;;;;21.60;20.30;;;;;;;-141.02;100.00;55844.97;5134251;27;20216;-74
2022/03/15 10:27:19;;;;;;;22.27;20.88;;;;;;;-141.02;100.00;55844.97;5134117;27;20204;-74
2022/03/15 10:29:47;;;;;;;22.17;20.77;;;;;;;-141.02;100.00;55844.97;5134068;27;20232;-74
2022/03/15 10:32:15;;;;;;;21.63;20.33;;;;;;;-141.02;100.00;55844.97;5134010;27;20279;-74
2022/03/15 10:34:42;;;;;;;22.55;21.15;;;;;;;-141.02;100.00;55844.97;5133982;27;20258;-75
2022/03/15 10:37:09;;;;;;;23.90;22.13;;;;;;;-141.02;100.00;55844.97;5133692;27;20673;-74
2022/03/15 10:39:39;;;;;;;24.02;22.20;;;;;;;-141.02;100.00;55844.97;5133499;27;20284;-74
2022/03/15 10:42:08;;;;;;;22.00;20.70;;;;;;;-141.02;100.00;55844.97;5133870;27;20192;-74
2022/03/15 10:44:37;;;;;;;24.25;22.45;;;;;;;-141.02;100.00;55844.97;5133440;27;20733;-74
2022/03/15 10:47:08;;;;;;;21.97;20.57;;;;;;;-141.02;100.00;55844.97;5133784;27;20224;-74
2022/03/15 10:49:49;;;;;;;21.33;20.03;;;;;;;-141.02;100.00;55844.97;5133267;27;20224;-74
2022/03/15 10:52:31;;;;;;;24.70;22.92;;;;;;;-141.02;100.00;55844.97;5133395;27;20180;-74
2022/03/15 10:55:10;;;;;;;23.35;21.70;;;;;;;-141.02;100.00;55844.97;5133614;27;20196;-74
2022/03/15 10:57:45;;;;;;;24.95;22.70;;;;;;;-141.02;100.00;55844.97;5133640;27;20184;-74